CheckWX is a tool to help pilots better visualize weather data.  It is not intended as a substitute for an official pre-flight weather briefing.

16:16:56 UTC

KHTO METAR
East Hampton Airport
East Hampton, New York, USA
Current

22 mins ago

KHTO 261555Z AUTO 25008KT 10SM CLR 25/17 A2991 RMK AO2 T02460174
Observed
May-26 @ 15:55 UTC
Wind
  • 250° at 8 KTS
Visibility
10 SM
Flight Rules
VFR
Cloud Levels
  • Clear skies
Temperature
25°C / 77°F
Dewpoint
17°C / 63°F
Humidity
61%
Altimeter
29.91" Hg
Pressure
1012.92 hPa
Previous

42 mins ago

KHTO 261535Z AUTO 28007KT 10SM CLR 24/17 A2992 RMK AO2 T02410171
Observed
May-26 @ 15:35 UTC
Wind
  • 280° at 7 KTS
Visibility
10 SM
Flight Rules
VFR
Cloud Levels
  • Clear skies
Temperature
24°C / 75°F
Dewpoint
17°C / 63°F
Humidity
65%
Altimeter
29.92" Hg
Pressure
1013.22 hPa
Previous

1 hour ago

KHTO 261515Z AUTO 24007KT 10SM CLR 24/17 A2992 RMK AO2 T02360173
Observed
May-26 @ 15:15 UTC
Wind
  • 240° at 7 KTS
Visibility
10 SM
Flight Rules
VFR
Cloud Levels
  • Clear skies
Temperature
24°C / 75°F
Dewpoint
17°C / 63°F
Humidity
65%
Altimeter
29.92" Hg
Pressure
1013.22 hPa